createdAt,value
2023-02-14T00:03:52.911Z,28.65
2023-02-14T00:08:54.728Z,28.15
2023-02-14T00:14:14.819Z,26.98
2023-02-14T00:19:17.845Z,27.67
2023-02-14T00:24:22.481Z,26.05
2023-02-14T00:29:27.746Z,27.40
2023-02-14T00:34:29.717Z,14.40
2023-02-14T00:39:31.188Z,28.77
2023-02-14T00:44:32.644Z,25.92
2023-02-14T00:49:34.149Z,22.27
2023-02-14T00:54:35.588Z,30.25
2023-02-14T00:59:37.053Z,29.40
2023-02-14T01:04:38.893Z,28.08
2023-02-14T01:09:41.270Z,26.52
2023-02-14T01:14:42.717Z,14.73
2023-02-14T01:19:45.154Z,24.77
2023-02-14T01:24:46.636Z,24.77
2023-02-14T01:29:48.126Z,28.10
2023-02-14T01:34:49.591Z,15.25
2023-02-14T01:39:52.201Z,25.92
2023-02-14T01:45:01.348Z,21.73
2023-02-14T01:50:09.708Z,25.42
2023-02-14T01:55:41.714Z,30.75
2023-02-14T02:00:59.420Z,28.20
2023-02-14T02:06:16.531Z,26.35
2023-02-14T02:11:18.042Z,27.27
2023-02-14T02:16:36.203Z,29.40
2023-02-14T02:22:12.734Z,25.05
2023-02-14T02:27:25.975Z,14.20
2023-02-14T02:32:54.248Z,27.70
2023-02-14T02:38:07.661Z,29.33
2023-02-14T02:43:35.345Z,27.75
2023-02-14T02:48:55.987Z,25.83
2023-02-14T02:54:12.520Z,21.48
2023-02-14T02:59:19.783Z,23.38
2023-02-14T03:04:45.928Z,22.98
2023-02-14T03:09:57.468Z,22.88
2023-02-14T03:15:22.313Z,27.63
2023-02-14T03:20:46.523Z,22.73
2023-02-14T03:26:12.100Z,24.90
2023-02-14T03:31:56.111Z,13.55
2023-02-14T03:37:04.333Z,25.65
2023-02-14T03:42:11.305Z,10.98
2023-02-14T03:47:18.135Z,21.92
2023-02-14T03:52:21.607Z,26.08
2023-02-14T03:57:52.159Z,24.75
2023-02-14T04:02:58.915Z,17.35
2023-02-14T04:08:00.367Z,25.45
2023-02-14T04:13:01.856Z,26.17
2023-02-14T04:18:21.688Z,27.02
2023-02-14T04:23:23.136Z,25.08
2023-02-14T04:28:24.608Z,24.35
2023-02-14T04:33:26.060Z,15.55
2023-02-14T04:38:27.674Z,23.85
2023-02-14T04:43:29.145Z,28.13
2023-02-14T04:48:30.591Z,26.40
2023-02-14T04:53:32.053Z,21.48
2023-02-14T04:58:33.724Z,26.33
2023-02-14T05:03:36.391Z,24.85
2023-02-14T05:08:37.841Z,25.55
2023-02-14T05:13:39.281Z,14.90
2023-02-14T05:18:40.793Z,22.45
2023-02-14T05:23:42.369Z,24.33
2023-02-14T05:28:43.957Z,17.50
2023-02-14T05:33:45.488Z,26.00
2023-02-14T05:38:47.015Z,22.10
2023-02-14T05:43:48.471Z,22.65
2023-02-14T05:48:49.902Z,20.70
2023-02-14T05:53:51.365Z,21.83
2023-02-14T05:58:52.815Z,20.85
2023-02-14T06:03:54.247Z,24.75
2023-02-14T06:08:55.699Z,24.55
2023-02-14T06:13:57.167Z,21.40
2023-02-14T06:18:58.594Z,22.70
2023-02-14T06:24:00.013Z,23.10
2023-02-14T06:29:01.964Z,21.95
2023-02-14T06:39:05.157Z,15.57
2023-02-14T06:44:06.674Z,21.77
2023-02-14T06:49:10.038Z,17.80
2023-02-14T06:54:11.723Z,20.83
2023-02-14T06:59:13.183Z,26.92
2023-02-14T07:04:14.625Z,19.60
2023-02-14T07:09:17.796Z,23.83
2023-02-14T07:14:19.249Z,24.00
2023-02-14T07:19:20.692Z,20.98
2023-02-14T07:24:22.327Z,25.70
2023-02-14T07:29:23.980Z,24.90
2023-02-14T07:34:27.126Z,24.90
2023-02-14T07:39:28.546Z,28.60
2023-02-14T07:44:30.038Z,24.52
2023-02-14T07:49:31.612Z,24.83
2023-02-14T07:54:33.129Z,20.63
2023-02-14T07:59:34.580Z,25.83
2023-02-14T08:04:36.080Z,15.93
2023-02-14T08:09:37.531Z,21.33
2023-02-14T08:14:39.015Z,21.65
2023-02-14T08:19:40.982Z,23.17
2023-02-14T08:24:43.339Z,22.63
2023-02-14T08:29:44.765Z,19.38
2023-02-14T08:34:47.146Z,20.13
2023-02-14T08:39:48.596Z,21.77
2023-02-14T08:44:50.036Z,21.90
2023-02-14T08:49:51.631Z,23.48
2023-02-14T08:54:53.074Z,24.77
2023-02-14T08:59:54.625Z,21.95
2023-02-14T09:04:56.073Z,21.58
2023-02-14T09:09:57.534Z,22.02
2023-02-14T09:14:58.990Z,20.40
2023-02-14T09:20:00.572Z,18.30
2023-02-14T09:25:02.417Z,21.30
2023-02-14T09:30:09.378Z,17.60
2023-02-14T09:35:10.863Z,14.27
2023-02-14T09:40:14.464Z,17.42
2023-02-14T09:45:25.496Z,12.63
2023-02-14T09:50:43.627Z,16.48
2023-02-14T09:55:53.988Z,15.50
2023-02-14T10:01:10.923Z,15.52
2023-02-14T10:06:45.362Z,14.13
2023-02-14T10:11:49.005Z,18.55
2023-02-14T10:16:56.385Z,15.90
2023-02-14T10:22:03.854Z,16.90
2023-02-14T10:27:24.316Z,15.38
2023-02-14T10:33:05.207Z,20.90
2023-02-14T10:38:37.474Z,21.15
2023-02-14T10:44:01.584Z,21.23
2023-02-14T10:49:22.553Z,20.77
2023-02-14T10:54:29.068Z,24.75
2023-02-14T10:59:52.578Z,23.35
2023-02-14T11:04:54.959Z,24.63
2023-02-14T11:09:57.088Z,23.73
2023-02-14T11:15:19.330Z,23.10
2023-02-14T11:20:30.390Z,24.13
2023-02-14T11:25:32.156Z,20.00
2023-02-14T11:30:41.653Z,23.52
2023-02-14T11:35:51.348Z,24.25
2023-02-14T11:40:57.281Z,20.42
2023-02-14T11:46:20.478Z,19.55
2023-02-14T11:51:28.475Z,21.45
2023-02-14T11:56:49.503Z,23.33
2023-02-14T12:01:51.132Z,17.75
2023-02-14T12:06:53.092Z,22.35
2023-02-14T12:17:04.580Z,21.83
2023-02-14T12:27:25.939Z,19.83
2023-02-14T12:32:31.137Z,18.73
2023-02-14T12:38:04.425Z,19.45
2023-02-14T12:43:43.701Z,17.00
2023-02-14T12:49:30.810Z,17.60
2023-02-14T12:54:58.537Z,15.88
2023-02-14T13:00:15.136Z,15.15
2023-02-14T13:05:54.758Z,18.67
2023-02-14T13:11:06.135Z,15.25
2023-02-14T13:16:44.824Z,12.98
2023-02-14T13:21:48.770Z,14.27
2023-02-14T13:26:55.492Z,15.73
2023-02-14T13:32:01.209Z,16.40
2023-02-14T13:37:07.939Z,15.38
2023-02-14T13:42:10.184Z,12.02
2023-02-14T13:47:26.015Z,14.80
2023-02-14T13:52:46.037Z,12.60
2023-02-14T13:58:01.987Z,12.30
2023-02-14T14:03:04.909Z,14.63
2023-02-14T14:08:18.418Z,10.80
2023-02-14T14:13:41.969Z,10.00
2023-02-14T14:18:43.841Z,12.93
2023-02-14T14:23:45.283Z,11.60
2023-02-14T14:28:46.788Z,9.82
2023-02-14T14:33:58.006Z,15.90
2023-02-14T14:38:59.476Z,16.60
2023-02-14T14:44:01.130Z,16.75
2023-02-14T14:49:02.701Z,16.15
2023-02-14T14:54:07.366Z,16.00
2023-02-14T14:59:39.175Z,13.48
2023-02-14T15:04:40.664Z,18.70
2023-02-14T15:09:43.809Z,16.55
2023-02-14T15:14:54.640Z,15.32
2023-02-14T15:20:00.157Z,13.57
2023-02-14T15:25:09.545Z,18.23
2023-02-14T15:30:25.888Z,17.15
2023-02-14T15:35:30.571Z,14.82
2023-02-14T15:40:34.728Z,13.93
2023-02-14T15:45:36.571Z,14.60
2023-02-14T15:50:46.082Z,10.32
2023-02-14T15:55:51.795Z,16.17
2023-02-14T16:00:53.886Z,10.00
2023-02-14T16:05:55.410Z,11.70
2023-02-14T16:11:14.466Z,9.32
2023-02-14T16:16:16.911Z,10.60
2023-02-14T16:21:31.151Z,9.38
2023-02-14T16:26:39.136Z,16.13
2023-02-14T16:37:34.143Z,13.40
2023-02-14T16:42:38.604Z,20.88
2023-02-14T16:47:40.049Z,18.70
2023-02-14T16:52:43.215Z,21.42
2023-02-14T16:57:47.728Z,21.83
2023-02-14T17:02:49.616Z,22.13
2023-02-14T17:07:51.086Z,23.17
2023-02-14T17:12:52.712Z,23.33
2023-02-14T17:18:02.508Z,23.33
2023-02-14T17:23:03.960Z,24.88
2023-02-14T17:28:05.398Z,29.10
2023-02-14T17:33:06.950Z,32.58
2023-02-14T17:38:08.404Z,17.98
2023-02-14T17:43:09.956Z,31.90
2023-02-14T17:48:11.861Z,30.70
2023-02-14T17:58:14.763Z,23.88
2023-02-14T18:03:16.209Z,26.92
2023-02-14T18:08:18.296Z,27.20
2023-02-14T18:13:19.708Z,17.23
2023-02-14T18:18:21.179Z,23.52
2023-02-14T18:23:22.887Z,18.63
2023-02-14T18:28:25.480Z,20.58
2023-02-14T18:33:26.905Z,23.33
2023-02-14T18:38:28.342Z,19.52
2023-02-14T18:43:30.111Z,22.85
2023-02-14T18:48:32.592Z,19.05
2023-02-14T18:53:35.056Z,23.17
2023-02-14T18:58:36.708Z,24.52
2023-02-14T19:03:39.391Z,19.73
2023-02-14T19:08:41.691Z,14.15
2023-02-14T19:13:48.841Z,21.40
2023-02-14T19:18:50.974Z,23.92
2023-02-14T19:28:56.824Z,22.40
2023-02-14T19:33:58.283Z,20.95
2023-02-14T19:38:59.751Z,19.65
2023-02-14T19:44:04.647Z,16.30
2023-02-14T19:49:06.589Z,17.40
2023-02-14T19:54:09.746Z,18.08
2023-02-14T19:59:11.526Z,20.15
2023-02-14T20:04:20.206Z,18.15
2023-02-14T20:09:22.797Z,21.85
2023-02-14T20:14:31.451Z,23.98
2023-02-14T20:19:35.524Z,31.58
2023-02-14T20:24:36.955Z,31.02
2023-02-14T20:29:41.428Z,34.92
2023-02-14T20:34:42.962Z,35.17
2023-02-14T20:39:44.406Z,29.85
2023-02-14T20:44:45.851Z,33.22
2023-02-14T20:49:47.305Z,31.50
2023-02-14T20:54:48.785Z,35.65
2023-02-14T20:59:50.214Z,39.75
2023-02-14T21:04:51.647Z,39.22
2023-02-14T21:09:53.064Z,38.58
2023-02-14T21:14:54.494Z,39.42
2023-02-14T21:19:55.968Z,36.47
2023-02-14T21:24:57.425Z,42.88
2023-02-14T21:29:58.943Z,35.72
2023-02-14T21:35:00.413Z,36.83
2023-02-14T21:40:01.856Z,39.90
2023-02-14T21:45:21.930Z,36.67
2023-02-14T21:50:32.121Z,35.47
2023-02-14T21:55:34.821Z,42.83
2023-02-14T22:00:36.261Z,33.30
2023-02-14T22:05:37.754Z,37.97
2023-02-14T22:10:40.345Z,38.85
2023-02-14T22:15:41.822Z,43.85
2023-02-14T22:20:43.638Z,42.72
2023-02-14T22:25:45.089Z,34.88
2023-02-14T22:30:46.515Z,40.15
2023-02-14T22:35:48.054Z,38.70
2023-02-14T22:40:49.669Z,39.13
2023-02-14T22:45:51.100Z,48.22
2023-02-14T22:50:52.555Z,43.38
2023-02-14T22:55:53.991Z,42.90
2023-02-14T23:00:55.455Z,37.17
2023-02-14T23:05:57.870Z,37.47
2023-02-14T23:11:06.678Z,38.67
2023-02-14T23:16:28.200Z,37.00
2023-02-14T23:21:48.582Z,37.88
2023-02-14T23:26:50.401Z,40.25
2023-02-14T23:31:52.094Z,35.78
2023-02-14T23:36:53.594Z,37.28
2023-02-14T23:41:55.300Z,38.30
2023-02-14T23:46:59.241Z,43.42
2023-02-14T23:52:01.484Z,31.50
